createdAt,value
2019-04-25T00:02:45.315Z,23.63
2019-04-25T00:05:15.045Z,20.17
2019-04-25T00:07:43.816Z,19.57
2019-04-25T00:10:13.782Z,24.87
2019-04-25T00:12:43.256Z,18.60
2019-04-25T00:15:11.507Z,26.67
2019-04-25T00:17:40.183Z,20.33
2019-04-25T00:20:08.990Z,25.40
2019-04-25T00:22:45.453Z,21.17
2019-04-25T00:25:45.200Z,25.10
2019-04-25T00:28:11.711Z,26.40
2019-04-25T00:30:42.316Z,20.27
2019-04-25T00:33:11.542Z,28.57
2019-04-25T00:35:39.301Z,22.40
2019-04-25T00:38:06.843Z,20.30
2019-04-25T00:40:34.532Z,24.27
2019-04-25T00:43:02.047Z,20.57
2019-04-25T00:45:29.673Z,20.80
2019-04-25T00:47:57.245Z,26.07
2019-04-25T00:50:24.892Z,21.23
2019-04-25T00:52:53.670Z,15.77
2019-04-25T00:55:28.523Z,25.67
2019-04-25T00:57:55.436Z,24.53
2019-04-25T01:00:49.051Z,20.10
2019-04-25T01:03:22.531Z,25.83
2019-04-25T01:05:50.132Z,26.40
2019-04-25T01:08:17.854Z,20.60
2019-04-25T01:10:45.867Z,22.87
2019-04-25T01:13:13.544Z,28.87
2019-04-25T01:15:42.568Z,21.67
2019-04-25T01:18:12.211Z,17.53
2019-04-25T01:20:40.083Z,24.47
2019-04-25T01:23:07.651Z,29.20
2019-04-25T01:25:41.111Z,20.97
2019-04-25T01:28:06.008Z,22.97
2019-04-25T01:30:34.014Z,26.43
2019-04-25T01:33:03.491Z,26.17
2019-04-25T01:35:50.561Z,20.67
2019-04-25T01:38:29.420Z,20.70
2019-04-25T01:41:23.880Z,19.30
2019-04-25T01:43:58.382Z,26.30
2019-04-25T01:46:25.265Z,20.63
2019-04-25T01:48:54.496Z,20.80
2019-04-25T01:51:23.982Z,25.10
2019-04-25T01:53:52.617Z,27.87
2019-04-25T01:56:23.034Z,16.83
2019-04-25T01:58:54.479Z,24.37
2019-04-25T02:01:24.149Z,22.53
2019-04-25T02:03:53.520Z,19.60
2019-04-25T02:06:21.267Z,19.20
2019-04-25T02:08:48.787Z,21.87
2019-04-25T02:11:28.215Z,28.37
2019-04-25T02:13:56.052Z,22.20
2019-04-25T02:16:24.439Z,19.03
2019-04-25T02:18:54.209Z,26.53
2019-04-25T02:21:21.531Z,19.93
2019-04-25T02:23:49.128Z,25.10
2019-04-25T02:26:18.677Z,24.53
2019-04-25T02:28:46.199Z,28.17
2019-04-25T02:31:15.343Z,21.60
2019-04-25T02:33:44.290Z,16.43
2019-04-25T02:36:14.470Z,22.87
2019-04-25T02:38:43.998Z,21.97
2019-04-25T02:41:11.128Z,24.13
2019-04-25T02:43:38.686Z,25.03
2019-04-25T02:46:28.833Z,26.17
2019-04-25T02:49:28.781Z,22.90
2019-04-25T02:52:08.453Z,21.20
2019-04-25T02:54:35.602Z,22.03
2019-04-25T02:57:06.612Z,20.00
2019-04-25T02:59:34.596Z,20.33
2019-04-25T03:02:05.225Z,27.17
2019-04-25T03:04:33.930Z,25.37
2019-04-25T03:07:03.605Z,25.27
2019-04-25T03:09:31.873Z,23.87
2019-04-25T03:11:59.950Z,23.47
2019-04-25T03:14:27.911Z,22.90
2019-04-25T03:16:55.626Z,21.23
2019-04-25T03:19:48.911Z,21.57
2019-04-25T03:22:19.609Z,21.57
2019-04-25T03:24:47.240Z,20.53
2019-04-25T03:27:14.849Z,15.67
2019-04-25T03:29:43.888Z,21.90
2019-04-25T03:32:16.707Z,18.33
2019-04-25T03:34:41.344Z,16.57
2019-04-25T03:37:09.461Z,17.57
2019-04-25T03:39:37.035Z,25.07
2019-04-25T03:42:05.987Z,23.17
2019-04-25T03:44:33.853Z,19.50
2019-04-25T03:47:03.400Z,23.27
2019-04-25T03:49:30.879Z,24.67
2019-04-25T03:51:58.482Z,25.50
2019-04-25T03:54:26.050Z,22.67
2019-04-25T03:56:56.110Z,24.87
2019-04-25T03:59:24.226Z,28.93
2019-04-25T04:01:53.734Z,23.80
2019-04-25T04:04:23.569Z,24.00
2019-04-25T04:06:51.066Z,20.30
2019-04-25T04:09:18.701Z,25.97
2019-04-25T04:11:46.282Z,18.10
2019-04-25T04:14:15.385Z,26.30
2019-04-25T04:17:05.075Z,20.07
2019-04-25T04:19:37.435Z,21.77
2019-04-25T04:22:20.745Z,32.67
2019-04-25T04:24:51.649Z,24.00
2019-04-25T04:27:19.191Z,21.27
2019-04-25T04:29:47.255Z,23.87
2019-04-25T04:32:16.089Z,20.23
2019-04-25T04:34:45.505Z,18.77
2019-04-25T04:37:14.819Z,23.33
2019-04-25T04:39:43.722Z,18.90
2019-04-25T04:42:11.718Z,24.63
2019-04-25T04:44:39.535Z,22.50
2019-04-25T04:47:08.861Z,22.47
2019-04-25T04:49:36.572Z,22.23
2019-04-25T04:52:06.384Z,21.60
2019-04-25T04:54:34.455Z,26.97
2019-04-25T04:57:16.195Z,21.30
2019-04-25T04:59:33.694Z,25.23
2019-04-25T05:02:33.362Z,22.90
2019-04-25T05:05:26.522Z,23.63
2019-04-25T05:07:57.777Z,25.23
2019-04-25T05:10:25.495Z,25.63
2019-04-25T05:12:53.348Z,22.73
2019-04-25T05:15:20.997Z,24.97
2019-04-25T05:17:48.574Z,21.37
2019-04-25T05:20:17.576Z,28.13
2019-04-25T05:22:45.653Z,22.83
2019-04-25T05:25:16.247Z,28.97
2019-04-25T05:27:57.783Z,27.50
2019-04-25T05:30:17.967Z,21.97
2019-04-25T05:32:45.770Z,28.50
2019-04-25T05:35:14.962Z,25.03
2019-04-25T05:37:43.576Z,22.00
2019-04-25T05:40:11.448Z,25.47
2019-04-25T05:43:00.239Z,22.73
2019-04-25T05:45:29.134Z,28.00
2019-04-25T05:47:56.915Z,28.93
2019-04-25T05:50:25.212Z,22.40
2019-04-25T05:52:54.192Z,22.33
2019-04-25T05:55:22.169Z,26.23
2019-04-25T05:57:50.347Z,26.40
2019-04-25T06:00:18.928Z,25.80
2019-04-25T06:02:46.976Z,26.13
2019-04-25T06:05:14.655Z,21.47
2019-04-25T06:07:43.238Z,27.93
2019-04-25T06:10:31.085Z,26.67
2019-04-25T06:13:27.774Z,22.43
2019-04-25T06:16:03.450Z,17.70
2019-04-25T06:18:54.942Z,27.77
2019-04-25T06:21:23.601Z,23.00
2019-04-25T06:24:18.936Z,20.73
2019-04-25T06:26:59.173Z,23.03
2019-04-25T06:29:26.833Z,25.00
2019-04-25T06:32:04.266Z,29.43
2019-04-25T06:34:26.769Z,23.60
2019-04-25T06:36:53.676Z,31.13
2019-04-25T06:39:22.000Z,17.50
2019-04-25T06:41:49.653Z,19.03
2019-04-25T06:44:40.413Z,18.67
2019-04-25T06:47:34.087Z,16.87
2019-04-25T06:50:02.047Z,18.07
2019-04-25T06:52:31.830Z,24.80
2019-04-25T06:54:59.122Z,21.13
2019-04-25T06:57:28.235Z,15.50
2019-04-25T06:59:56.225Z,18.63
2019-04-25T07:02:25.395Z,14.37
2019-04-25T07:04:54.034Z,16.67
2019-04-25T07:07:24.276Z,10.97
2019-04-25T07:09:53.306Z,15.27
2019-04-25T07:12:24.110Z,14.60
2019-04-25T07:14:50.744Z,16.60
2019-04-25T07:17:18.473Z,11.70
2019-04-25T07:19:46.134Z,12.43
2019-04-25T07:22:15.433Z,14.93
2019-04-25T07:24:43.996Z,21.33
2019-04-25T07:27:37.520Z,15.73
2019-04-25T07:30:45.454Z,14.90
2019-04-25T07:33:13.796Z,17.30
2019-04-25T07:35:43.337Z,20.37
2019-04-25T07:38:11.149Z,15.10
2019-04-25T07:40:40.409Z,11.53
2019-04-25T07:43:08.124Z,15.23
2019-04-25T07:45:36.288Z,17.17
2019-04-25T07:48:07.303Z,14.93
2019-04-25T07:50:35.409Z,11.73
2019-04-25T07:53:03.629Z,13.47
2019-04-25T07:55:33.497Z,16.65
2019-04-25T07:58:03.171Z,16.57
2019-04-25T08:00:31.423Z,20.05
2019-04-25T08:02:59.058Z,12.47
2019-04-25T08:05:27.788Z,15.98
2019-04-25T08:07:55.702Z,16.75
2019-04-25T08:10:25.759Z,17.57
2019-04-25T08:12:54.959Z,10.75
2019-04-25T08:15:47.944Z,14.23
2019-04-25T08:18:15.506Z,14.05
2019-04-25T08:20:43.455Z,11.30
2019-04-25T08:23:11.205Z,10.50
2019-04-25T08:25:40.030Z,12.10
2019-04-25T08:28:08.212Z,13.72
2019-04-25T08:30:36.688Z,11.35
2019-04-25T08:33:05.343Z,11.85
2019-04-25T08:35:34.229Z,19.60
2019-04-25T08:38:03.710Z,15.30
2019-04-25T08:40:33.104Z,16.70
2019-04-25T08:43:03.444Z,15.48
2019-04-25T08:45:31.537Z,11.97
2019-04-25T08:47:59.094Z,12.53
2019-04-25T08:50:39.292Z,13.00
2019-04-25T08:53:06.154Z,13.32
2019-04-25T08:55:46.744Z,11.28
2019-04-25T08:58:26.648Z,11.73
2019-04-25T09:01:14.158Z,8.70
2019-04-25T09:03:47.922Z,10.35
2019-04-25T09:06:15.600Z,10.25
2019-04-25T09:08:44.018Z,5.80
2019-04-25T09:11:13.540Z,11.35
2019-04-25T09:13:41.072Z,15.45
2019-04-25T09:16:08.804Z,9.03
2019-04-25T09:18:37.007Z,6.50
2019-04-25T09:21:04.768Z,7.10
2019-04-25T09:23:34.430Z,9.68
2019-04-25T09:26:01.846Z,9.03
2019-04-25T09:28:30.502Z,8.15
2019-04-25T09:30:58.221Z,5.62
2019-04-25T09:33:25.774Z,8.85
2019-04-25T09:35:54.077Z,8.10
2019-04-25T09:38:21.847Z,8.50
2019-04-25T09:40:49.488Z,6.08
2019-04-25T09:43:17.046Z,5.53
2019-04-25T09:45:59.125Z,6.30
2019-04-25T09:48:54.169Z,6.78
2019-04-25T09:51:26.149Z,9.00
2019-04-25T09:54:08.950Z,7.60
2019-04-25T09:56:41.095Z,6.28
2019-04-25T09:59:13.849Z,7.00
2019-04-25T10:01:44.892Z,7.30
2019-04-25T10:04:12.521Z,6.72
2019-04-25T10:06:40.688Z,11.33
2019-04-25T10:09:09.619Z,8.25
2019-04-25T10:11:39.975Z,10.90
2019-04-25T10:14:35.374Z,7.42
2019-04-25T10:17:03.795Z,10.03
2019-04-25T10:19:31.700Z,6.97
2019-04-25T10:21:59.369Z,7.58
2019-04-25T10:24:26.983Z,6.53
2019-04-25T10:26:54.897Z,7.12
2019-04-25T10:29:22.431Z,8.95
2019-04-25T10:31:50.095Z,6.78
2019-04-25T10:34:17.697Z,5.67
2019-04-25T10:36:45.469Z,7.90
2019-04-25T10:39:14.619Z,7.87
2019-04-25T10:41:44.749Z,7.58
2019-04-25T10:44:11.889Z,6.03
2019-04-25T10:46:40.187Z,7.85
2019-04-25T10:49:08.055Z,8.18
2019-04-25T10:51:35.880Z,7.40
2019-04-25T10:54:04.190Z,7.67
2019-04-25T10:56:33.498Z,6.08
2019-04-25T10:59:01.521Z,8.08
2019-04-25T11:01:29.148Z,7.22
2019-04-25T11:04:02.494Z,5.95
2019-04-25T11:06:30.109Z,5.28
2019-04-25T11:08:57.869Z,9.10
2019-04-25T11:11:26.618Z,6.10
2019-04-25T11:13:55.989Z,8.15
2019-04-25T11:16:24.230Z,8.35
2019-04-25T11:18:53.120Z,4.35
2019-04-25T11:21:21.807Z,5.65
2019-04-25T11:23:50.468Z,7.15
2019-04-25T11:26:18.232Z,4.55
2019-04-25T11:28:45.999Z,3.87
2019-04-25T11:31:24.198Z,5.72
2019-04-25T11:33:51.949Z,6.75
2019-04-25T11:36:19.624Z,5.40
2019-04-25T11:39:19.048Z,5.42
2019-04-25T11:41:48.214Z,5.08
2019-04-25T11:44:17.503Z,8.25
2019-04-25T11:46:45.792Z,5.03
2019-04-25T11:49:15.391Z,5.42
2019-04-25T11:51:44.743Z,3.85
2019-04-25T11:54:13.888Z,3.22
2019-04-25T11:56:42.673Z,7.35
2019-04-25T11:59:11.026Z,8.25
2019-04-25T12:01:38.566Z,7.22
2019-04-25T12:04:06.318Z,5.47
2019-04-25T12:06:34.023Z,8.08
2019-04-25T12:09:01.603Z,6.35
2019-04-25T12:11:31.038Z,10.75
2019-04-25T12:13:58.749Z,4.90
2019-04-25T12:16:26.489Z,5.08
2019-04-25T12:18:56.079Z,6.03
2019-04-25T12:21:24.008Z,5.10
2019-04-25T12:23:51.793Z,5.25
2019-04-25T12:26:19.346Z,7.37
2019-04-25T12:28:47.278Z,9.30
2019-04-25T12:31:14.897Z,7.97
2019-04-25T12:33:43.426Z,6.78
2019-04-25T12:36:13.580Z,7.45
2019-04-25T12:38:41.425Z,4.53
2019-04-25T12:41:08.946Z,6.40
2019-04-25T12:43:38.537Z,5.30
2019-04-25T12:46:11.930Z,4.72
2019-04-25T12:48:39.525Z,4.90
2019-04-25T12:51:07.115Z,4.70
2019-04-25T12:53:35.164Z,7.47
2019-04-25T12:56:04.309Z,4.25
2019-04-25T12:58:33.394Z,4.47
2019-04-25T13:01:01.864Z,5.45
2019-04-25T13:03:30.699Z,3.62
2019-04-25T13:05:59.385Z,6.35
2019-04-25T13:08:27.120Z,4.95
2019-04-25T13:11:07.334Z,6.05
2019-04-25T13:13:24.403Z,3.80
2019-04-25T13:15:53.279Z,5.78
2019-04-25T13:18:21.099Z,4.47
2019-04-25T13:20:48.718Z,6.90
2019-04-25T13:23:16.576Z,3.60
2019-04-25T13:25:44.321Z,6.90
2019-04-25T13:28:45.078Z,4.78
2019-04-25T13:31:29.055Z,5.72
2019-04-25T13:34:05.901Z,6.35
2019-04-25T13:36:34.660Z,5.92
2019-04-25T13:39:05.560Z,7.97
2019-04-25T13:41:35.103Z,6.45
2019-04-25T13:44:03.522Z,5.05
2019-04-25T13:46:34.307Z,9.45
2019-04-25T13:49:04.245Z,8.25
2019-04-25T13:51:33.043Z,4.42
2019-04-25T13:54:00.935Z,4.67
2019-04-25T13:56:28.747Z,7.17
2019-04-25T13:58:56.483Z,7.58
2019-04-25T14:01:24.929Z,6.62
2019-04-25T14:03:56.565Z,5.17
2019-04-25T14:06:24.251Z,8.53
2019-04-25T14:08:53.408Z,7.83
2019-04-25T14:11:24.096Z,8.53
2019-04-25T14:13:52.053Z,8.58
2019-04-25T14:16:30.236Z,6.90
2019-04-25T14:19:16.163Z,7.17
2019-04-25T14:21:44.325Z,7.43
2019-04-25T14:24:20.216Z,3.90
2019-04-25T14:26:41.449Z,5.10
2019-04-25T14:29:09.030Z,5.80
2019-04-25T14:31:45.153Z,7.20
2019-04-25T14:34:06.156Z,7.57
2019-04-25T14:36:34.547Z,8.07
2019-04-25T14:39:02.296Z,6.60
2019-04-25T14:41:32.369Z,5.80
2019-04-25T14:44:00.009Z,9.27
2019-04-25T14:46:27.833Z,12.03
2019-04-25T14:48:55.373Z,5.53
2019-04-25T14:51:24.093Z,7.77
2019-04-25T14:53:51.637Z,10.37
2019-04-25T14:56:36.916Z,7.87
2019-04-25T14:59:05.052Z,7.83
2019-04-25T15:01:44.447Z,8.13
2019-04-25T15:04:04.054Z,9.63
2019-04-25T15:06:32.051Z,14.07
2019-04-25T15:08:59.910Z,16.37
2019-04-25T15:11:27.573Z,8.83
2019-04-25T15:13:55.279Z,8.47
2019-04-25T15:16:24.818Z,9.20
2019-04-25T15:18:52.580Z,9.93
2019-04-25T15:21:20.206Z,10.07
2019-04-25T15:23:59.611Z,11.33
2019-04-25T15:26:17.383Z,12.60
2019-04-25T15:28:44.982Z,7.57
2019-04-25T15:31:12.547Z,10.83
2019-04-25T15:33:40.113Z,9.23
2019-04-25T15:36:13.902Z,11.07
2019-04-25T15:38:52.449Z,7.20
2019-04-25T15:41:35.847Z,8.17
2019-04-25T15:44:21.778Z,14.30
2019-04-25T15:46:50.904Z,10.67
2019-04-25T15:49:18.579Z,5.97
2019-04-25T15:51:46.146Z,10.00
2019-04-25T15:54:13.842Z,8.53
2019-04-25T15:56:41.567Z,10.97
2019-04-25T15:59:09.348Z,12.33
2019-04-25T16:01:36.949Z,9.20
2019-04-25T16:04:04.609Z,7.57
2019-04-25T16:06:32.278Z,10.83
2019-04-25T16:09:00.020Z,11.93
2019-04-25T16:11:28.039Z,6.77
2019-04-25T16:13:55.826Z,13.17
2019-04-25T16:16:23.540Z,13.53
2019-04-25T16:18:51.631Z,9.00
2019-04-25T16:21:19.356Z,13.50
2019-04-25T16:23:47.032Z,9.87
2019-04-25T16:26:14.857Z,11.00
2019-04-25T16:28:43.969Z,11.73
2019-04-25T16:31:14.112Z,10.67
2019-04-25T16:33:42.117Z,10.47
2019-04-25T16:36:09.708Z,11.80
2019-04-25T16:38:37.420Z,8.87
2019-04-25T16:41:05.277Z,10.77
2019-04-25T16:43:36.251Z,12.67
2019-04-25T16:46:03.977Z,15.17
2019-04-25T16:48:31.582Z,8.07
2019-04-25T16:51:00.023Z,11.70
2019-04-25T16:53:27.620Z,11.27
2019-04-25T16:55:55.202Z,11.20
2019-04-25T16:58:23.383Z,14.83
2019-04-25T17:00:58.610Z,6.57
2019-04-25T17:03:26.916Z,8.00
2019-04-25T17:05:54.726Z,7.80
2019-04-25T17:08:22.458Z,9.57
2019-04-25T17:10:50.037Z,8.00
2019-04-25T17:13:17.957Z,9.63
2019-04-25T17:16:06.853Z,11.97
2019-04-25T17:18:43.181Z,7.63
2019-04-25T17:21:11.778Z,8.87
2019-04-25T17:23:39.703Z,8.87
2019-04-25T17:26:07.555Z,11.93
2019-04-25T17:28:39.163Z,8.83
2019-04-25T17:31:29.389Z,11.23
2019-04-25T17:34:05.155Z,11.23
2019-04-25T17:36:40.763Z,10.50
2019-04-25T17:39:42.187Z,9.00
2019-04-25T17:42:11.930Z,8.17
2019-04-25T17:44:40.380Z,11.83
2019-04-25T17:47:09.228Z,9.80
2019-04-25T17:49:36.896Z,11.77
2019-04-25T17:52:04.526Z,9.97
2019-04-25T17:54:32.917Z,9.63
2019-04-25T17:57:00.681Z,11.27
2019-04-25T17:59:28.342Z,14.63
2019-04-25T18:01:57.849Z,13.17
2019-04-25T18:04:25.571Z,10.57
2019-04-25T18:06:53.281Z,7.13
2019-04-25T18:09:20.934Z,7.57
2019-04-25T18:11:48.632Z,8.83
2019-04-25T18:14:16.280Z,8.63
2019-04-25T18:16:45.552Z,6.77
2019-04-25T18:19:35.158Z,11.67
2019-04-25T18:22:41.249Z,10.57
2019-04-25T18:25:35.623Z,7.07
2019-04-25T18:28:17.003Z,14.80
2019-04-25T18:30:45.617Z,7.33
2019-04-25T18:33:29.054Z,10.33
2019-04-25T18:36:23.169Z,9.23
2019-04-25T18:38:59.862Z,8.23
2019-04-25T18:41:32.535Z,14.50
2019-04-25T18:44:01.602Z,11.67
2019-04-25T18:46:34.108Z,8.10
2019-04-25T18:49:01.730Z,10.33
2019-04-25T18:51:29.322Z,7.47
2019-04-25T18:54:07.982Z,9.07
2019-04-25T18:56:56.451Z,7.50
2019-04-25T18:59:55.550Z,9.70
2019-04-25T19:02:46.025Z,8.03
2019-04-25T19:05:32.173Z,9.57
2019-04-25T19:08:00.069Z,12.63
2019-04-25T19:10:27.711Z,10.27
2019-04-25T19:12:55.400Z,6.83
2019-04-25T19:15:23.088Z,11.50
2019-04-25T19:17:50.821Z,9.73
2019-04-25T19:20:18.524Z,9.07
2019-04-25T19:22:46.226Z,10.13
2019-04-25T19:25:13.896Z,7.47
2019-04-25T19:27:42.103Z,8.40
2019-04-25T19:30:12.251Z,9.10
2019-04-25T19:32:40.622Z,8.17
2019-04-25T19:35:09.597Z,9.17
2019-04-25T19:37:38.296Z,6.57
2019-04-25T19:40:24.370Z,11.67
2019-04-25T19:42:55.543Z,6.40
2019-04-25T19:45:24.313Z,7.90
2019-04-25T19:47:51.960Z,11.20
2019-04-25T19:50:19.521Z,7.27
2019-04-25T19:52:47.617Z,9.13
2019-04-25T19:55:15.199Z,7.80
2019-04-25T19:57:43.768Z,9.77
2019-04-25T20:00:11.763Z,11.73
2019-04-25T20:03:04.740Z,9.10
2019-04-25T20:05:39.725Z,13.40
2019-04-25T20:08:29.756Z,8.10
2019-04-25T20:11:00.832Z,7.43
2019-04-25T20:13:28.468Z,8.70
2019-04-25T20:15:56.005Z,8.83
2019-04-25T20:18:23.664Z,7.90
2019-04-25T20:20:52.023Z,7.40
2019-04-25T20:23:19.770Z,8.47
2019-04-25T20:25:48.259Z,7.10
2019-04-25T20:28:15.897Z,9.40
2019-04-25T20:30:45.429Z,8.03
2019-04-25T20:33:13.089Z,8.93
2019-04-25T20:35:41.060Z,10.40
2019-04-25T20:38:08.732Z,8.47
2019-04-25T20:40:36.303Z,9.77
2019-04-25T20:43:03.852Z,7.53
2019-04-25T20:45:33.195Z,9.93
2019-04-25T20:48:00.794Z,9.20
2019-04-25T20:50:28.421Z,12.07
2019-04-25T20:52:56.083Z,9.63
2019-04-25T20:55:24.965Z,8.93
2019-04-25T20:57:53.258Z,9.07
2019-04-25T21:00:41.059Z,9.90
2019-04-25T21:03:08.954Z,11.40
2019-04-25T21:05:36.537Z,9.77
2019-04-25T21:08:04.235Z,9.53
2019-04-25T21:10:31.912Z,9.53
2019-04-25T21:12:59.882Z,10.57
2019-04-25T21:15:38.767Z,7.83
2019-04-25T21:18:28.469Z,11.17
2019-04-25T21:20:57.061Z,7.43
2019-04-25T21:23:24.910Z,12.37
2019-04-25T21:25:52.970Z,8.93
2019-04-25T21:28:20.677Z,12.97
2019-04-25T21:30:48.432Z,6.97
2019-04-25T21:33:16.139Z,10.27
2019-04-25T21:35:44.002Z,7.00
2019-04-25T21:38:11.960Z,10.60
2019-04-25T21:41:05.004Z,16.13
2019-04-25T21:43:36.762Z,5.97
2019-04-25T21:46:04.724Z,10.43
2019-04-25T21:48:32.747Z,11.90
2019-04-25T21:51:20.796Z,6.57
2019-04-25T21:53:48.596Z,6.40
2019-04-25T21:56:16.377Z,9.50
2019-04-25T21:58:44.141Z,6.83
2019-04-25T22:01:16.989Z,9.30
2019-04-25T22:03:44.927Z,11.10
2019-04-25T22:06:12.919Z,9.60
2019-04-25T22:08:40.626Z,10.20
2019-04-25T22:11:08.272Z,12.10
2019-04-25T22:13:36.367Z,7.83
2019-04-25T22:16:04.606Z,10.30
2019-04-25T22:18:34.502Z,8.60
2019-04-25T22:21:02.635Z,11.63
2019-04-25T22:23:30.421Z,8.47
2019-04-25T22:25:58.849Z,10.27
2019-04-25T22:28:26.991Z,11.97
2019-04-25T22:30:57.859Z,8.40
2019-04-25T22:33:55.574Z,10.13
2019-04-25T22:36:23.717Z,7.30
2019-04-25T22:39:09.261Z,11.50
2019-04-25T22:41:39.557Z,6.83
2019-04-25T22:44:08.809Z,7.53
2019-04-25T22:46:36.832Z,10.17
2019-04-25T22:49:05.561Z,5.63
2019-04-25T22:51:33.350Z,13.17
2019-04-25T22:54:03.402Z,8.70
2019-04-25T22:56:31.080Z,7.37
2019-04-25T22:58:58.616Z,10.47
2019-04-25T23:01:57.778Z,7.27
2019-04-25T23:05:09.205Z,13.73
2019-04-25T23:07:33.551Z,7.97
2019-04-25T23:10:01.965Z,7.83
2019-04-25T23:12:30.890Z,7.07
2019-04-25T23:14:58.543Z,8.63
2019-04-25T23:17:26.218Z,7.97
2019-04-25T23:19:53.903Z,8.57
2019-04-25T23:22:21.421Z,8.03
2019-04-25T23:24:55.473Z,11.00
2019-04-25T23:27:41.747Z,10.53
2019-04-25T23:30:10.847Z,12.57
2019-04-25T23:32:39.056Z,11.60
2019-04-25T23:35:22.152Z,11.43
2019-04-25T23:37:36.084Z,7.27
2019-04-25T23:40:05.156Z,7.73
2019-04-25T23:42:33.921Z,7.33
2019-04-25T23:45:03.414Z,7.33
2019-04-25T23:47:30.919Z,8.33
2019-04-25T23:49:58.747Z,9.17
2019-04-25T23:52:26.264Z,11.53
2019-04-25T23:54:54.247Z,7.30
2019-04-25T23:57:22.206Z,10.70
2019-04-25T23:59:49.789Z,7.77
